createdAt,value
2022-08-21T00:03:46.664Z,0
2022-08-21T00:08:50.212Z,0
2022-08-21T00:13:54.723Z,0
2022-08-21T00:18:59.301Z,0
2022-08-21T00:24:03.855Z,0
2022-08-21T00:29:07.373Z,0
2022-08-21T00:34:11.917Z,0
2022-08-21T00:39:16.441Z,0
2022-08-21T00:44:19.992Z,0
2022-08-21T00:49:24.534Z,0
2022-08-21T00:54:29.078Z,0
2022-08-21T00:59:32.610Z,0
2022-08-21T01:04:37.108Z,0
2022-08-21T01:09:41.670Z,0
2022-08-21T01:14:45.233Z,0
2022-08-21T01:19:49.832Z,0
2022-08-21T01:24:54.299Z,0
2022-08-21T01:29:58.819Z,0
2022-08-21T01:35:02.390Z,0
2022-08-21T01:40:06.964Z,0
2022-08-21T01:45:11.436Z,0
2022-08-21T01:50:15.002Z,0
2022-08-21T01:55:19.564Z,0
2022-08-21T02:00:24.082Z,0
2022-08-21T02:05:27.587Z,0
2022-08-21T02:10:32.137Z,0
2022-08-21T02:15:36.666Z,0
2022-08-21T02:20:40.248Z,0
2022-08-21T02:25:44.766Z,0
2022-08-21T02:30:49.287Z,0
2022-08-21T02:35:54.096Z,0
2022-08-21T02:40:57.405Z,0
2022-08-21T02:46:01.955Z,0
2022-08-21T02:51:06.529Z,0
2022-08-21T02:56:10.052Z,0
2022-08-21T03:01:14.626Z,0
2022-08-21T03:06:19.125Z,0
2022-08-21T03:11:22.643Z,0
2022-08-21T03:16:27.165Z,0
2022-08-21T03:21:31.688Z,0
2022-08-21T03:26:35.423Z,0
2022-08-21T03:31:39.786Z,0
2022-08-21T03:36:44.328Z,0
2022-08-21T03:41:48.837Z,0
2022-08-21T03:46:52.410Z,0
2022-08-21T03:51:59.438Z,0
2022-08-21T03:57:01.464Z,0
2022-08-21T04:02:05.083Z,0
2022-08-21T04:07:08.572Z,0
2022-08-21T04:12:13.101Z,0
2022-08-21T04:17:17.689Z,0
2022-08-21T04:22:22.155Z,5
2022-08-21T04:27:25.737Z,5
2022-08-21T04:32:30.253Z,11
2022-08-21T04:37:34.785Z,22
2022-08-21T04:42:38.330Z,33
2022-08-21T04:47:52.475Z,45
2022-08-21T04:52:47.412Z,56
2022-08-21T04:57:50.959Z,67
2022-08-21T05:02:55.497Z,78
2022-08-21T05:08:00.014Z,90
2022-08-21T05:13:03.563Z,101
2022-08-21T05:18:08.096Z,112
2022-08-21T05:23:12.683Z,123
2022-08-21T05:28:17.169Z,140
2022-08-21T05:33:20.719Z,151
2022-08-21T05:38:25.270Z,163
2022-08-21T05:43:29.785Z,191
2022-08-21T05:48:33.383Z,202
2022-08-21T05:53:37.855Z,219
2022-08-21T05:58:42.398Z,236
2022-08-21T06:03:45.970Z,241
2022-08-21T06:08:50.493Z,258
2022-08-21T06:13:55.016Z,275
2022-08-21T06:19:02.620Z,292
2022-08-21T06:24:03.106Z,320
2022-08-21T06:29:07.649Z,382
2022-08-21T06:34:12.170Z,500
2022-08-21T06:39:24.701Z,551
2022-08-21T06:44:20.285Z,871
2022-08-21T06:49:24.809Z,883
2022-08-21T06:54:28.357Z,787
2022-08-21T06:59:32.874Z,708
2022-08-21T07:04:37.434Z,708
2022-08-21T07:09:40.979Z,691
2022-08-21T07:14:45.521Z,697
2022-08-21T07:19:50.055Z,725
2022-08-21T07:24:53.574Z,770
2022-08-21T07:29:58.132Z,877
2022-08-21T07:35:02.641Z,894
2022-08-21T07:40:07.286Z,871
2022-08-21T07:45:10.720Z,669
2022-08-21T07:50:15.279Z,720
2022-08-21T07:55:19.829Z,1096
2022-08-21T08:00:23.378Z,1096
2022-08-21T08:05:27.919Z,1254
2022-08-21T08:10:32.462Z,1333
2022-08-21T08:15:37.704Z,1417
2022-08-21T08:20:40.492Z,1372
2022-08-21T08:25:44.053Z,1535
2022-08-21T08:30:48.599Z,1530
2022-08-21T08:35:53.146Z,1569
2022-08-21T08:40:56.710Z,1698
2022-08-21T08:46:01.239Z,1704
2022-08-21T08:51:05.803Z,1665
2022-08-21T08:56:09.301Z,1839
2022-08-21T09:01:13.973Z,1839
2022-08-21T09:06:18.425Z,1929
2022-08-21T09:11:21.941Z,1918
2022-08-21T09:16:26.466Z,1884
2022-08-21T09:21:31.060Z,1996
2022-08-21T09:26:35.573Z,1906
2022-08-21T09:31:39.122Z,2025
2022-08-21T09:36:43.700Z,2013
2022-08-21T09:41:48.158Z,2154
2022-08-21T09:46:51.724Z,2171
2022-08-21T09:51:56.303Z,2165
2022-08-21T09:57:00.791Z,2002
2022-08-21T10:02:04.416Z,2160
2022-08-21T10:07:08.890Z,2199
2022-08-21T10:12:13.430Z,2199
2022-08-21T10:17:17.006Z,2390
2022-08-21T10:22:21.529Z,2261
2022-08-21T10:27:26.061Z,2227
2022-08-21T10:32:30.632Z,2334
2022-08-21T10:37:34.189Z,2334
2022-08-21T10:42:38.714Z,2278
2022-08-21T10:47:43.252Z,2233
2022-08-21T10:52:46.825Z,2345
2022-08-21T10:57:51.338Z,2272
2022-08-21T11:02:55.897Z,2261
2022-08-21T11:07:59.723Z,2407
2022-08-21T11:13:03.961Z,2041
2022-08-21T11:18:08.519Z,1867
2022-08-21T11:23:12.086Z,1665
2022-08-21T11:28:16.624Z,1805
2022-08-21T11:33:21.124Z,1755
2022-08-21T11:38:25.685Z,1884
2022-08-21T11:43:29.218Z,2075
2022-08-21T11:48:33.777Z,2351
2022-08-21T11:53:38.310Z,2306
2022-08-21T11:58:41.867Z,2221
2022-08-21T12:03:46.420Z,2244
2022-08-21T12:08:50.937Z,2266
2022-08-21T12:13:54.525Z,2199
2022-08-21T12:18:59.051Z,2317
2022-08-21T12:24:03.605Z,1856
2022-08-21T12:29:07.133Z,2002
2022-08-21T12:34:11.683Z,1923
2022-08-21T12:39:15.252Z,2086
2022-08-21T12:44:19.759Z,2311
2022-08-21T12:49:26.745Z,2188
2022-08-21T12:54:27.853Z,1648
2022-08-21T12:59:32.412Z,2199
2022-08-21T13:04:37.049Z,2193
2022-08-21T13:09:40.484Z,2131
2022-08-21T13:14:45.828Z,1800
2022-08-21T13:19:49.601Z,1901
2022-08-21T13:24:54.107Z,540
2022-08-21T13:29:57.679Z,2030
2022-08-21T13:35:02.191Z,1923
2022-08-21T13:40:06.769Z,1895
2022-08-21T13:45:10.308Z,1850
2022-08-21T13:50:14.861Z,1811
2022-08-21T13:55:19.405Z,1800
2022-08-21T14:00:22.960Z,1693
2022-08-21T14:05:27.491Z,1715
2022-08-21T14:10:32.024Z,1698
2022-08-21T14:15:35.614Z,1648
2022-08-21T14:20:40.122Z,1248
2022-08-21T14:25:44.845Z,1552
2022-08-21T14:30:51.470Z,1299
2022-08-21T14:35:52.722Z,1136
2022-08-21T14:40:57.308Z,1057
2022-08-21T14:46:01.809Z,405
2022-08-21T14:51:05.429Z,405
2022-08-21T14:56:09.894Z,556
2022-08-21T15:01:14.522Z,433
2022-08-21T15:06:18.023Z,438
2022-08-21T15:11:42.807Z,438
2022-08-21T15:16:27.099Z,528
2022-08-21T15:21:30.626Z,708
2022-08-21T15:26:35.158Z,736
2022-08-21T15:31:39.671Z,686
2022-08-21T15:36:44.218Z,641
2022-08-21T15:41:47.745Z,444
2022-08-21T15:46:52.336Z,360
2022-08-21T15:51:56.855Z,309
2022-08-21T15:57:00.432Z,275
2022-08-21T16:02:05.026Z,258
2022-08-21T16:07:09.883Z,258
2022-08-21T16:12:13.033Z,253
2022-08-21T16:17:17.582Z,241
2022-08-21T16:22:22.096Z,236
2022-08-21T16:27:27.290Z,247
2022-08-21T16:32:30.171Z,258
2022-08-21T16:37:34.771Z,236
2022-08-21T16:42:39.262Z,275
2022-08-21T16:47:42.802Z,241
2022-08-21T16:52:46.376Z,219
2022-08-21T16:57:50.890Z,196
2022-08-21T17:02:55.491Z,185
2022-08-21T17:07:58.974Z,168
2022-08-21T17:13:07.685Z,157
2022-08-21T17:18:08.031Z,146
2022-08-21T17:23:12.571Z,146
2022-08-21T17:28:16.157Z,129
2022-08-21T17:33:20.661Z,123
2022-08-21T17:38:25.211Z,118
2022-08-21T17:43:28.724Z,112
2022-08-21T17:48:33.280Z,101
2022-08-21T17:53:37.839Z,90
2022-08-21T17:58:41.347Z,73
2022-08-21T18:03:46.004Z,61
2022-08-21T18:08:50.426Z,50
2022-08-21T18:13:53.981Z,39
2022-08-21T18:18:58.528Z,28
2022-08-21T18:24:03.062Z,22
2022-08-21T18:29:07.563Z,11
2022-08-21T18:34:11.135Z,5
2022-08-21T18:39:35.342Z,5
2022-08-21T18:44:20.182Z,0
2022-08-21T18:49:23.732Z,0
2022-08-21T18:54:28.257Z,0
2022-08-21T18:59:32.846Z,0
2022-08-21T19:04:44.372Z,0
2022-08-21T19:09:40.906Z,0
2022-08-21T19:14:45.414Z,0
2022-08-21T19:19:48.997Z,0
2022-08-21T19:24:53.519Z,0
2022-08-21T19:29:58.051Z,0
2022-08-21T19:35:02.591Z,0
2022-08-21T19:40:06.196Z,0
2022-08-21T19:45:10.671Z,0
2022-08-21T19:50:18.063Z,0
2022-08-21T19:55:19.199Z,0
2022-08-21T20:00:24.025Z,0
2022-08-21T20:05:39.491Z,0
2022-08-21T20:10:31.351Z,0
2022-08-21T20:15:35.945Z,0
2022-08-21T20:20:40.442Z,0
2022-08-21T20:25:43.995Z,0
2022-08-21T20:30:48.547Z,0
2022-08-21T20:35:53.066Z,0
2022-08-21T20:40:57.632Z,0
2022-08-21T20:46:01.161Z,0
2022-08-21T20:51:05.709Z,0
2022-08-21T20:56:14.203Z,0
2022-08-21T21:01:13.773Z,0
2022-08-21T21:06:17.351Z,0
2022-08-21T21:11:21.848Z,0
2022-08-21T21:16:27.343Z,0
2022-08-21T21:21:33.133Z,0
2022-08-21T21:26:35.446Z,0
2022-08-21T21:31:39.000Z,0
2022-08-21T21:36:43.906Z,0
2022-08-21T21:41:47.107Z,0
2022-08-21T21:46:51.603Z,0
2022-08-21T21:52:00.167Z,0
2022-08-21T21:56:59.714Z,0
2022-08-21T22:02:04.250Z,0
2022-08-21T22:07:08.762Z,0
2022-08-21T22:12:12.353Z,0
2022-08-21T22:17:16.875Z,0
2022-08-21T22:22:21.395Z,0
2022-08-21T22:27:25.942Z,0
2022-08-21T22:32:29.475Z,0
2022-08-21T22:37:33.985Z,0
2022-08-21T22:42:38.529Z,0
2022-08-21T22:47:42.058Z,0
2022-08-21T22:52:46.602Z,0
2022-08-21T22:57:51.158Z,0
2022-08-21T23:02:55.612Z,0
2022-08-21T23:07:59.237Z,0
2022-08-21T23:13:09.047Z,0
2022-08-21T23:18:07.305Z,0
2022-08-21T23:23:11.836Z,0
2022-08-21T23:28:16.365Z,0
2022-08-21T23:33:20.910Z,0
2022-08-21T23:38:24.476Z,0
2022-08-21T23:43:28.993Z,0
2022-08-21T23:48:33.514Z,0
2022-08-21T23:53:38.441Z,0
2022-08-21T23:58:41.604Z,0
